Time,TemperatureF,DewpointF,PressureIn,WindDirection,WindDirectionDegrees,WindSpeedMPH,WindSpeedGustMPH,Humidity,HourlyPrecipIn,Conditions,Clouds,dailyrainin,SoftwareType,DateUTC
2013-03-19 05:23:00,71.0,66.0,29.88,NNW,348,0.0,-999.0,84,-99.99,,,-99.99,,2013-03-19 09:23:00,
2013-03-19 05:33:00,71.0,67.0,29.89,NNW,348,0.0,-999.0,87,-99.99,,,-99.99,,2013-03-19 09:33:00,
2013-03-19 05:43:00,71.0,67.0,29.89,NNW,348,0.0,-999.0,87,-99.99,,,-99.99,,2013-03-19 09:43:00,
2013-03-19 05:53:00,70.0,66.0,29.89,NNW,348,0.0,-999.0,86,-99.99,,,-99.99,,2013-03-19 09:53:00,
2013-03-19 06:03:00,70.0,66.0,29.89,NNW,348,0.0,-999.0,86,-99.99,,,-99.99,,2013-03-19 10:03:00,
2013-03-19 06:13:00,70.0,66.0,29.89,NNW,348,0.0,-999.0,86,-99.99,,,-99.99,,2013-03-19 10:13:00,
2013-03-19 06:23:00,70.0,64.0,29.91,NNW,348,0.0,-999.0,80,-99.99,,,-99.99,,2013-03-19 10:23:00,
2013-03-19 06:32:00,70.0,62.0,29.91,NNW,348,0.0,-999.0,76,-99.99,,,-99.99,,2013-03-19 10:32:00,
2013-03-19 06:42:00,70.0,62.0,29.91,NNW,348,0.0,-999.0,76,-99.99,,,-99.99,,2013-03-19 10:42:00,
2013-03-19 06:53:00,70.0,61.0,29.91,NNW,341,0.0,-999.0,72,-99.99,,,-99.99,,2013-03-19 10:53:00,
2013-03-19 07:02:00,70.0,59.0,29.92,NNW,341,0.0,-999.0,69,-99.99,,,-99.99,,2013-03-19 11:02:00,
2013-03-19 07:12:00,70.0,59.0,29.92,NNW,341,0.0,-999.0,69,-99.99,,,-99.99,,2013-03-19 11:12:00,
2013-03-19 07:22:00,69.0,57.0,29.92,NNW,341,0.0,-999.0,66,-99.99,,,-99.99,,2013-03-19 11:22:00,
2013-03-19 07:33:00,69.0,55.0,29.92,NNW,341,0.0,-999.0,62,-99.99,,,-99.99,,2013-03-19 11:33:00,
2013-03-19 07:43:00,69.0,55.0,29.92,NNW,341,0.0,-999.0,62,-99.99,,,-99.99,,2013-03-19 11:43:00,
2013-03-19 07:53:00,69.0,54.0,29.93,NNW,341,0.0,-999.0,58,-99.99,,,-99.99,,2013-03-19 11:53:00,
2013-03-19 08:02:00,69.0,52.0,29.93,NNW,343,0.0,-999.0,54,-99.99,,,-99.99,,2013-03-19 12:02:00,
2013-03-19 08:12:00,69.0,50.0,29.94,NNW,341,2.0,-999.0,51,-99.99,,,-99.99,,2013-03-19 12:12:00,
2013-03-19 08:22:00,69.0,50.0,29.94,NNW,341,2.0,-999.0,51,-99.99,,,-99.99,,2013-03-19 12:22:00,
2013-03-19 08:33:00,70.0,50.0,29.95,WNW,300,0.0,-999.0,49,-99.99,,,-99.99,,2013-03-19 12:33:00,
2013-03-19 08:42:00,70.0,50.0,29.95,WNW,300,0.0,-999.0,49,-99.99,,,-99.99,,2013-03-19 12:42:00,
2013-03-19 08:52:00,70.0,50.0,29.95,West,264,1.0,-999.0,49,-99.99,,,-99.99,,2013-03-19 12:52:00,
2013-03-19 09:02:00,70.0,49.0,29.96,WSW,254,3.0,-999.0,48,-99.99,,,-99.99,,2013-03-19 13:02:00,
2013-03-19 09:12:00,70.0,49.0,29.96,WSW,254,3.0,-999.0,48,-99.99,,,-99.99,,2013-03-19 13:12:00,
2013-03-19 09:22:00,70.0,49.0,29.96,WSW,254,0.0,-999.0,48,-99.99,,,-99.99,,2013-03-19 13:22:00,
2013-03-19 09:33:00,70.0,49.0,29.98,WSW,254,0.0,-999.0,48,-99.99,,,-99.99,,2013-03-19 13:33:00,
2013-03-19 09:42:00,70.0,49.0,29.98,WSW,254,0.0,-999.0,48,-99.99,,,-99.99,,2013-03-19 13:42:00,
2013-03-19 09:52:00,70.0,49.0,29.97,WSW,254,1.0,-999.0,48,-99.99,,,-99.99,,2013-03-19 13:52:00,
2013-03-19 10:02:00,70.0,49.0,30.00,WSW,254,0.0,-999.0,48,-99.99,,,-99.99,,2013-03-19 14:02:00,
2013-03-19 10:12:00,70.0,49.0,30.00,WSW,254,0.0,-999.0,48,-99.99,,,-99.99,,2013-03-19 14:12:00,
2013-03-19 10:22:00,70.0,49.0,29.93,WSW,254,0.0,-999.0,48,-99.99,,,-99.99,,2013-03-19 14:22:00,
2013-03-19 10:32:00,70.0,49.0,29.94,WSW,254,0.0,-999.0,48,-99.99,,,-99.99,,2013-03-19 14:32:00,
2013-03-19 10:42:00,70.0,49.0,29.94,WSW,254,0.0,-999.0,48,-99.99,,,-99.99,,2013-03-19 14:42:00,
2013-03-19 10:53:00,70.0,50.0,29.93,WNW,285,0.0,-999.0,49,-99.99,,,-99.99,,2013-03-19 14:53:00,
2013-03-19 11:02:00,71.0,51.0,29.98,WNW,285,0.0,-999.0,49,-99.99,,,-99.99,,2013-03-19 15:02:00,
2013-03-19 11:12:00,71.0,51.0,29.98,WNW,285,0.0,-999.0,49,-99.99,,,-99.99,,2013-03-19 15:12:00,
2013-03-19 11:22:00,71.0,51.0,29.97,NNW,328,0.0,-999.0,49,-99.99,,,-99.99,,2013-03-19 15:22:00,
2013-03-19 11:34:00,72.0,52.0,29.96,NW,309,0.0,-999.0,49,-99.99,,,-99.99,,2013-03-19 15:34:00,
2013-03-19 11:43:00,72.0,52.0,29.96,NW,309,0.0,-999.0,49,-99.99,,,-99.99,,2013-03-19 15:43:00,
2013-03-19 11:53:00,72.0,51.0,29.93,WNW,303,0.0,-999.0,48,-99.99,,,-99.99,,2013-03-19 15:53:00,
2013-03-19 12:04:00,73.0,52.0,29.98,WNW,283,0.0,-999.0,48,-99.99,,,-99.99,,2013-03-19 16:04:00,
2013-03-19 12:13:00,73.0,52.0,29.98,WNW,283,0.0,-999.0,48,-99.99,,,-99.99,,2013-03-19 16:13:00,
2013-03-19 12:24:00,74.0,52.0,29.98,NW,307,0.0,-999.0,47,-99.99,,,-99.99,,2013-03-19 16:24:00,
2013-03-19 12:54:00,76.0,55.0,29.98,NW,310,0.0,-999.0,48,-99.99,,,-99.99,,2013-03-19 16:54:00,
2013-03-19 13:03:00,75.0,56.0,29.98,WNW,290,0.0,-999.0,51,-99.99,,,-99.99,,2013-03-19 17:03:00,
2013-03-19 13:34:00,76.0,70.0,29.98,West,280,1.0,-999.0,81,-99.99,,,-99.99,,2013-03-19 17:34:00,
2013-03-19 13:44:00,76.0,70.0,29.98,West,280,1.0,-999.0,81,-99.99,,,-99.99,,2013-03-19 17:44:00,
2013-03-19 13:53:00,76.0,76.0,29.96,West,265,0.0,-999.0,100,-99.99,,,-99.99,,2013-03-19 17:53:00,
2013-03-19 14:03:00,77.0,77.0,29.95,WSW,249,1.0,-999.0,100,-99.99,,,-99.99,,2013-03-19 18:03:00,
2013-03-19 14:13:00,77.0,77.0,29.95,WSW,249,1.0,-999.0,100,-99.99,,,-99.99,,2013-03-19 18:13:00,
2013-03-19 14:23:00,76.0,76.0,29.95,SW,225,0.0,-999.0,100,-99.99,,,-99.99,,2013-03-19 18:23:00,
2013-03-19 14:33:00,76.0,76.0,29.94,SW,230,0.0,-999.0,100,-99.99,,,-99.99,,2013-03-19 18:33:00,
2013-03-19 14:43:00,76.0,76.0,29.94,SW,230,0.0,-999.0,100,-99.99,,,-99.99,,2013-03-19 18:43:00,
2013-03-19 14:53:00,76.0,76.0,29.94,SW,230,0.0,-999.0,100,-99.99,,,-99.99,,2013-03-19 18:53:00,
2013-03-19 15:02:00,77.0,77.0,29.93,WSW,246,0.0,-999.0,100,-99.99,,,-99.99,,2013-03-19 19:02:00,
2013-03-19 15:12:00,77.0,77.0,29.93,WSW,246,0.0,-999.0,100,-99.99,,,-99.99,,2013-03-19 19:12:00,
2013-03-19 15:22:00,77.0,77.0,29.93,WSW,243,0.0,-999.0,100,-99.99,,,-99.99,,2013-03-19 19:22:00,
2013-03-19 15:52:00,77.0,-31.0,29.93,West,270,1.0,-999.0,1,-99.99,,,-99.99,,2013-03-19 19:52:00,
2013-03-19 16:12:00,73.0,-33.0,29.91,West,267,0.0,-999.0,1,-99.99,,,-99.99,,2013-03-19 20:12:00,
2013-03-19 16:22:00,73.0,-33.0,29.91,West,267,0.0,-999.0,1,-99.99,,,-99.99,,2013-03-19 20:22:00,
2013-03-19 16:33:00,77.0,77.0,29.91,West,265,0.0,-999.0,100,-99.99,,,-99.99,,2013-03-19 20:33:00,
2013-03-19 16:43:00,77.0,77.0,29.91,West,265,0.0,-999.0,100,-99.99,,,-99.99,,2013-03-19 20:43:00,
2013-03-19 17:34:00,77.0,77.0,29.88,SSW,204,0.0,-999.0,100,-99.99,,,-99.99,,2013-03-19 21:34:00,
2013-03-19 17:43:00,77.0,77.0,29.88,SSW,204,0.0,-999.0,100,-99.99,,,-99.99,,2013-03-19 21:43:00,
2013-03-19 17:53:00,77.0,77.0,29.88,SSW,204,0.0,-999.0,100,-99.99,,,-99.99,,2013-03-19 21:53:00,
2013-03-19 18:03:00,77.0,77.0,29.88,SSW,204,0.0,-999.0,100,-99.99,,,-99.99,,2013-03-19 22:03:00,
2013-03-19 18:13:00,77.0,77.0,29.88,SSW,204,0.0,-999.0,100,-99.99,,,-99.99,,2013-03-19 22:13:00,
2013-03-19 18:23:00,77.0,77.0,29.88,SSW,204,0.0,-999.0,100,-99.99,,,-99.99,,2013-03-19 22:23:00,
2013-03-19 18:33:00,77.0,77.0,29.88,SSW,204,0.0,-999.0,100,-99.99,,,-99.99,,2013-03-19 22:33:00,
2013-03-19 18:43:00,77.0,77.0,29.88,SSW,205,0.0,-999.0,100,-99.99,,,-99.99,,2013-03-19 22:43:00,
2013-03-19 18:54:00,77.0,77.0,29.88,SSW,205,0.0,-999.0,100,-99.99,,,-99.99,,2013-03-19 22:54:00,
2013-03-19 19:03:00,77.0,77.0,29.90,SSW,206,0.0,-999.0,100,-99.99,,,-99.99,,2013-03-19 23:03:00,
2013-03-19 19:12:00,76.0,76.0,29.90,SSW,207,0.0,-999.0,100,-99.99,,,-99.99,,2013-03-19 23:12:00,
2013-03-19 19:22:00,76.0,76.0,29.90,SSW,207,0.0,-999.0,100,-99.99,,,-99.99,,2013-03-19 23:22:00,
2013-03-19 19:33:00,75.0,75.0,29.90,SSW,207,0.0,-999.0,100,-99.99,,,-99.99,,2013-03-19 23:33:00,
2013-03-19 19:43:00,75.0,75.0,29.90,SSW,207,0.0,-999.0,100,-99.99,,,-99.99,,2013-03-19 23:43:00,
2013-03-19 19:52:00,74.0,74.0,29.91,SSW,207,0.0,-999.0,100,-99.99,,,-99.99,,2013-03-19 23:52:00,
2013-03-19 20:03:00,74.0,74.0,29.91,SSW,207,0.0,-999.0,100,-99.99,,,-99.99,,2013-03-20 00:03:00,
2013-03-19 20:13:00,74.0,74.0,29.91,SSW,207,0.0,-999.0,100,-99.99,,,-99.99,,2013-03-20 00:13:00,
2013-03-19 20:22:00,72.0,72.0,29.92,SSW,207,0.0,-999.0,100,-99.99,,,-99.99,,2013-03-20 00:22:00,
2013-03-19 20:33:00,71.0,71.0,29.93,SSW,207,0.0,-999.0,100,-99.99,,,-99.99,,2013-03-20 00:33:00,
2013-03-19 20:43:00,71.0,71.0,29.93,SSW,207,0.0,-999.0,100,-99.99,,,-99.99,,2013-03-20 00:43:00,
2013-03-19 20:52:00,71.0,71.0,29.93,SSW,207,0.0,-999.0,100,-99.99,,,-99.99,,2013-03-20 00:52:00,
2013-03-19 21:03:00,71.0,71.0,29.93,SSW,207,0.0,-999.0,100,-99.99,,,-99.99,,2013-03-20 01:03:00,
2013-03-19 21:12:00,70.0,70.0,29.93,SSW,207,0.0,-999.0,100,-99.99,,,-99.99,,2013-03-20 01:12:00,
2013-03-19 21:22:00,70.0,70.0,29.93,SSW,207,0.0,-999.0,100,-99.99,,,-99.99,,2013-03-20 01:22:00,
2013-03-19 21:32:00,70.0,70.0,29.93,SSW,207,0.0,-999.0,100,-99.99,,,-99.99,,2013-03-20 01:32:00,
2013-03-19 21:42:00,70.0,70.0,29.93,SSW,207,0.0,-999.0,100,-99.99,,,-99.99,,2013-03-20 01:42:00,
2013-03-19 21:52:00,69.0,69.0,29.93,SSW,207,0.0,-999.0,100,-99.99,,,-99.99,,2013-03-20 01:52:00,
2013-03-19 23:02:00,68.0,-36.0,29.94,SSW,207,0.0,-999.0,1,-99.99,,,-99.99,,2013-03-20 03:02:00,
2013-03-19 23:12:00,68.0,-36.0,29.94,SSW,207,0.0,-999.0,1,-99.99,,,-99.99,,2013-03-20 03:12:00,
2013-03-19 23:22:00,68.0,-36.0,29.94,SSW,207,0.0,-999.0,1,-99.99,,,-99.99,,2013-03-20 03:22:00,
2013-03-19 23:34:00,68.0,-36.0,29.94,SSW,207,0.0,-999.0,1,-99.99,,,-99.99,,2013-03-20 03:34:00,
2013-03-19 23:42:00,68.0,-36.0,29.94,SSW,207,0.0,-999.0,1,-99.99,,,-99.99,,2013-03-20 03:42:00,
2013-03-19 23:53:00,68.0,-36.0,29.93,SSW,207,0.0,-999.0,1,-99.99,,,-99.99,,2013-03-20 03:53:00,